createdAt,value
2022-09-20T00:00:02.286Z,12.99
2022-09-20T00:01:01.897Z,12.99
2022-09-20T00:02:03.160Z,12.96
2022-09-20T00:03:03.291Z,12.96
2022-09-20T00:04:03.474Z,12.92
2022-09-20T00:05:03.367Z,12.88
2022-09-20T00:06:03.077Z,12.84
2022-09-20T00:07:02.068Z,12.84
2022-09-20T00:08:02.161Z,12.81
2022-09-20T00:09:02.386Z,12.78
2022-09-20T00:10:02.442Z,12.75
2022-09-20T00:11:02.649Z,12.77
2022-09-20T00:12:02.686Z,12.74
2022-09-20T00:13:02.485Z,12.74
2022-09-20T00:14:02.302Z,12.71
2022-09-20T00:15:02.770Z,12.69
2022-09-20T00:16:02.617Z,12.67
2022-09-20T00:17:03.090Z,12.66
2022-09-20T00:18:03.076Z,12.64
2022-09-20T00:19:02.700Z,12.63
2022-09-20T00:20:03.036Z,12.62
2022-09-20T00:21:02.938Z,12.60
2022-09-20T00:22:03.428Z,12.56
2022-09-20T00:23:03.243Z,12.56
2022-09-20T00:24:03.406Z,12.51
2022-09-20T00:25:03.135Z,12.51
2022-09-20T00:26:02.969Z,12.44
2022-09-20T00:27:03.543Z,12.45
2022-09-20T00:28:03.454Z,12.42
2022-09-20T00:29:03.379Z,12.39
2022-09-20T00:30:03.438Z,12.39
2022-09-20T00:31:03.248Z,12.37
2022-09-20T00:32:02.351Z,12.33
2022-09-20T00:33:02.728Z,12.33
2022-09-20T00:34:02.560Z,12.31
2022-09-20T00:35:02.333Z,12.31
2022-09-20T00:36:02.712Z,12.30
2022-09-20T00:37:02.562Z,12.27
2022-09-20T00:38:03.246Z,12.26
2022-09-20T00:39:03.254Z,12.23
2022-09-20T00:40:02.906Z,12.21
2022-09-20T00:41:02.765Z,12.20
2022-09-20T00:42:03.307Z,12.20
2022-09-20T00:43:03.174Z,12.21
2022-09-20T00:44:03.682Z,12.21
2022-09-20T00:45:03.125Z,12.21
2022-09-20T00:46:03.053Z,12.21
2022-09-20T00:47:02.682Z,12.21
2022-09-20T00:48:02.999Z,12.20
2022-09-20T00:49:03.235Z,12.20
2022-09-20T00:50:02.912Z,12.20
2022-09-20T00:51:02.961Z,12.21
2022-09-20T00:52:03.165Z,12.21
2022-09-20T00:53:02.990Z,12.23
2022-09-20T00:54:02.788Z,12.21
2022-09-20T00:55:03.347Z,12.21
2022-09-20T00:56:03.169Z,12.21
2022-09-20T00:57:03.011Z,12.21
2022-09-20T00:58:03.061Z,12.20
2022-09-20T00:59:03.114Z,12.23
2022-09-20T01:00:02.995Z,12.23
2022-09-20T01:01:03.348Z,12.24
2022-09-20T01:02:02.410Z,12.24
2022-09-20T01:03:02.294Z,12.23
2022-09-20T01:04:02.836Z,12.23
2022-09-20T01:05:02.400Z,12.23
2022-09-20T01:06:02.609Z,12.21
2022-09-20T01:07:02.537Z,12.23
2022-09-20T01:08:02.575Z,12.23
2022-09-20T01:09:02.465Z,12.24
2022-09-20T01:10:02.581Z,12.24
2022-09-20T01:11:02.402Z,12.24
2022-09-20T01:12:02.870Z,12.23
2022-09-20T01:13:03.052Z,12.26
2022-09-20T01:14:03.296Z,12.27
2022-09-20T01:15:02.924Z,12.30
2022-09-20T01:16:02.738Z,12.29
2022-09-20T01:17:02.346Z,12.31
2022-09-20T01:18:02.783Z,12.30
2022-09-20T01:19:02.699Z,12.31
2022-09-20T01:20:02.499Z,12.31
2022-09-20T01:21:02.740Z,12.31
2022-09-20T01:22:02.715Z,12.31
2022-09-20T01:23:02.743Z,12.31
2022-09-20T01:24:02.477Z,12.31
2022-09-20T01:25:02.810Z,12.33
2022-09-20T01:26:02.490Z,12.37
2022-09-20T01:27:01.968Z,12.39
2022-09-20T01:28:02.313Z,12.38
2022-09-20T01:29:02.261Z,12.37
2022-09-20T01:30:02.092Z,12.39
2022-09-20T01:31:01.891Z,12.41
2022-09-20T01:32:02.326Z,12.39
2022-09-20T01:33:02.697Z,12.39
2022-09-20T01:34:02.640Z,12.41
2022-09-20T01:35:02.312Z,12.42
2022-09-20T01:36:02.294Z,12.42
2022-09-20T01:37:02.899Z,12.41
2022-09-20T01:38:03.022Z,12.39
2022-09-20T01:39:02.955Z,12.38
2022-09-20T01:40:03.002Z,12.37
2022-09-20T01:41:03.114Z,12.38
2022-09-20T01:42:02.755Z,12.38
2022-09-20T01:43:03.278Z,12.37
2022-09-20T01:44:03.121Z,12.37
2022-09-20T01:45:02.731Z,12.39
2022-09-20T01:46:03.065Z,12.39
2022-09-20T01:47:03.120Z,12.39
2022-09-20T01:48:02.916Z,12.38
2022-09-20T01:49:02.988Z,12.41
2022-09-20T01:50:02.852Z,12.38
2022-09-20T01:51:03.368Z,12.39
2022-09-20T01:52:02.679Z,12.39
2022-09-20T01:53:02.633Z,12.39
2022-09-20T01:54:02.457Z,12.38
2022-09-20T01:55:02.685Z,12.39
2022-09-20T01:56:02.520Z,12.38
2022-09-20T01:57:02.989Z,12.39
2022-09-20T01:58:02.801Z,12.39
2022-09-20T01:59:22.598Z,12.42
2022-09-20T02:00:02.796Z,12.44
2022-09-20T02:01:03.430Z,12.44
2022-09-20T02:02:02.793Z,12.42
2022-09-20T02:03:02.635Z,12.42
2022-09-20T02:04:02.940Z,12.42
2022-09-20T02:05:03.046Z,12.42
2022-09-20T02:06:03.095Z,12.42
2022-09-20T02:07:02.062Z,12.44
2022-09-20T02:08:02.575Z,12.44
2022-09-20T02:09:02.171Z,12.44
2022-09-20T02:10:02.415Z,12.42
2022-09-20T02:11:02.236Z,12.44
2022-09-20T02:12:02.798Z,12.45
2022-09-20T02:13:02.589Z,12.45
2022-09-20T02:14:02.361Z,12.46
2022-09-20T02:15:02.841Z,12.44
2022-09-20T02:16:02.607Z,12.45
2022-09-20T02:17:01.961Z,12.45
2022-09-20T02:18:02.337Z,12.46
2022-09-20T02:19:01.833Z,12.48
2022-09-20T02:20:02.339Z,12.45
2022-09-20T02:21:02.130Z,12.46
2022-09-20T02:22:02.624Z,12.44
2022-09-20T02:23:02.804Z,12.45
2022-09-20T02:24:02.432Z,12.45
2022-09-20T02:25:02.210Z,12.44
2022-09-20T02:26:02.341Z,12.44
2022-09-20T02:27:02.923Z,12.44
2022-09-20T02:28:02.711Z,12.44
2022-09-20T02:29:02.504Z,12.42
2022-09-20T02:30:02.992Z,12.44
2022-09-20T02:31:02.845Z,12.44
2022-09-20T02:32:02.467Z,12.44
2022-09-20T02:33:02.290Z,12.42
2022-09-20T02:34:02.072Z,12.42
2022-09-20T02:35:01.999Z,12.42
2022-09-20T02:36:02.200Z,12.41
2022-09-20T02:37:02.674Z,12.41
2022-09-20T02:38:02.597Z,12.41
2022-09-20T02:39:02.303Z,12.42
2022-09-20T02:40:02.904Z,12.44
2022-09-20T02:41:02.476Z,12.42
2022-09-20T02:42:02.943Z,12.42
2022-09-20T02:43:03.148Z,12.45
2022-09-20T02:44:02.937Z,12.44
2022-09-20T02:45:02.728Z,12.44
2022-09-20T02:46:02.591Z,12.44
2022-09-20T02:47:02.269Z,12.44
2022-09-20T02:48:02.044Z,12.42
2022-09-20T02:49:01.789Z,12.41
2022-09-20T02:50:02.281Z,12.39
2022-09-20T02:51:02.290Z,12.38
2022-09-20T02:52:02.816Z,12.37
2022-09-20T02:53:02.382Z,12.37
2022-09-20T02:54:02.896Z,12.34
2022-09-20T02:55:02.441Z,12.38
2022-09-20T02:56:02.949Z,12.34
2022-09-20T02:57:02.218Z,12.31
2022-09-20T02:58:02.014Z,12.29
2022-09-20T02:59:01.916Z,12.27
2022-09-20T03:00:01.729Z,12.26
2022-09-20T03:01:01.883Z,12.26
2022-09-20T03:02:02.347Z,12.26
2022-09-20T03:03:02.084Z,12.24
2022-09-20T03:04:01.928Z,12.24
2022-09-20T03:05:01.999Z,12.23
2022-09-20T03:06:01.821Z,12.23
2022-09-20T03:07:02.345Z,12.23
2022-09-20T03:08:03.174Z,12.24
2022-09-20T03:09:02.062Z,12.23
2022-09-20T03:10:01.871Z,12.20
2022-09-20T03:11:02.347Z,12.16
2022-09-20T03:12:02.478Z,12.13
2022-09-20T03:13:02.984Z,12.12
2022-09-20T03:14:02.723Z,12.11
2022-09-20T03:15:02.817Z,12.11
2022-09-20T03:16:02.778Z,12.06
2022-09-20T03:17:02.228Z,12.06
2022-09-20T03:18:02.129Z,12.05
2022-09-20T03:19:01.919Z,12.05
2022-09-20T03:20:02.284Z,12.04
2022-09-20T03:21:02.138Z,12.02
2022-09-20T03:22:02.543Z,12.04
2022-09-20T03:23:02.279Z,12.02
2022-09-20T03:24:02.438Z,11.97
2022-09-20T03:25:02.201Z,11.97
2022-09-20T03:26:02.027Z,11.96
2022-09-20T03:27:02.034Z,11.96
2022-09-20T03:28:02.442Z,11.96
2022-09-20T03:29:02.233Z,11.97
2022-09-20T03:30:02.324Z,11.93
2022-09-20T03:31:02.213Z,11.90
2022-09-20T03:32:02.553Z,11.89
2022-09-20T03:33:02.225Z,11.87
2022-09-20T03:34:02.688Z,11.87
2022-09-20T03:35:02.517Z,11.87
2022-09-20T03:36:02.237Z,11.87
2022-09-20T03:37:01.753Z,11.89
2022-09-20T03:38:02.299Z,11.89
2022-09-20T03:39:02.310Z,11.89
2022-09-20T03:40:02.094Z,11.89
2022-09-20T03:41:02.075Z,11.90
2022-09-20T03:42:01.904Z,11.90
2022-09-20T03:43:02.101Z,11.94
2022-09-20T03:44:02.284Z,11.93
2022-09-20T03:45:02.083Z,11.94
2022-09-20T03:46:02.632Z,11.96
2022-09-20T03:47:02.652Z,11.97
2022-09-20T03:48:02.501Z,11.96
2022-09-20T03:49:02.811Z,11.96
2022-09-20T03:50:02.724Z,11.94
2022-09-20T03:51:02.521Z,11.94
2022-09-20T03:52:01.573Z,11.94
2022-09-20T03:53:01.911Z,11.96
2022-09-20T03:54:01.687Z,11.96
2022-09-20T03:55:01.643Z,11.97
2022-09-20T03:56:02.171Z,11.97
2022-09-20T03:57:01.982Z,11.96
2022-09-20T03:58:04.762Z,11.96
2022-09-20T03:59:02.090Z,11.99
2022-09-20T04:00:01.886Z,12.02
2022-09-20T04:01:01.875Z,12.02
2022-09-20T04:02:01.847Z,12.04
2022-09-20T04:03:01.764Z,12.01
2022-09-20T04:04:01.914Z,12.02
2022-09-20T04:05:01.731Z,12.02
2022-09-20T04:06:02.419Z,12.01
2022-09-20T04:07:02.307Z,12.02
2022-09-20T04:08:02.115Z,12.02
2022-09-20T04:09:02.562Z,12.04
2022-09-20T04:10:02.079Z,12.01
2022-09-20T04:11:02.209Z,12.01
2022-09-20T04:12:02.011Z,12.02
2022-09-20T04:13:02.084Z,12.02
2022-09-20T04:14:02.599Z,12.05
2022-09-20T04:15:02.140Z,12.05
2022-09-20T04:16:02.624Z,12.04
2022-09-20T04:17:02.279Z,12.06
2022-09-20T04:18:02.111Z,12.05
2022-09-20T04:19:02.382Z,12.06
2022-09-20T04:20:02.113Z,12.08
2022-09-20T04:21:02.632Z,12.08
2022-09-20T04:22:02.495Z,12.06
2022-09-20T04:23:02.418Z,12.09
2022-09-20T04:24:02.954Z,12.06
2022-09-20T04:25:02.793Z,12.06
2022-09-20T04:26:02.632Z,12.06
2022-09-20T04:27:02.522Z,12.08
2022-09-20T04:28:02.440Z,12.08
2022-09-20T04:29:02.900Z,12.08
2022-09-20T04:30:02.619Z,12.06
2022-09-20T04:31:02.705Z,12.08
2022-09-20T04:32:02.827Z,12.09
2022-09-20T04:33:02.570Z,12.11
2022-09-20T04:34:03.036Z,12.11
2022-09-20T04:35:02.582Z,12.09
2022-09-20T04:36:03.094Z,12.08
2022-09-20T04:37:01.857Z,12.09
2022-09-20T04:38:01.793Z,12.08
2022-09-20T04:39:01.859Z,12.08
2022-09-20T04:40:02.101Z,12.08
2022-09-20T04:41:01.777Z,12.08
2022-09-20T04:42:02.759Z,12.08
2022-09-20T04:43:02.344Z,12.11
2022-09-20T04:44:02.270Z,12.09
2022-09-20T04:45:02.401Z,12.09
2022-09-20T04:46:02.903Z,12.08
2022-09-20T04:47:02.561Z,12.08
2022-09-20T04:48:02.773Z,12.09
2022-09-20T04:49:02.947Z,12.09
2022-09-20T04:50:02.617Z,12.06
2022-09-20T04:51:02.739Z,12.05
2022-09-20T04:52:02.579Z,12.05
2022-09-20T04:53:02.992Z,12.05
2022-09-20T04:54:02.827Z,12.04
2022-09-20T04:55:02.670Z,12.06
2022-09-20T04:56:02.593Z,12.05
2022-09-20T04:57:02.101Z,12.06
2022-09-20T04:58:02.037Z,12.04
2022-09-20T04:59:02.590Z,12.04
2022-09-20T05:00:02.459Z,12.04
2022-09-20T05:01:02.042Z,12.04
2022-09-20T05:02:02.751Z,11.99
2022-09-20T05:03:02.985Z,12.02
2022-09-20T05:04:03.045Z,12.02
2022-09-20T05:05:02.659Z,12.02
2022-09-20T05:06:02.740Z,12.01
2022-09-20T05:07:03.017Z,12.01
2022-09-20T05:08:02.942Z,12.01
2022-09-20T05:09:02.621Z,12.01
2022-09-20T05:10:02.888Z,11.99
2022-09-20T05:11:02.818Z,12.01
2022-09-20T05:12:02.362Z,11.97
2022-09-20T05:13:02.321Z,11.99
2022-09-20T05:14:02.682Z,11.97
2022-09-20T05:15:02.668Z,11.99
2022-09-20T05:16:02.728Z,11.97
2022-09-20T05:17:02.960Z,11.97
2022-09-20T05:18:02.894Z,11.99
2022-09-20T05:19:02.796Z,12.01
2022-09-20T05:20:02.991Z,12.01
2022-09-20T05:21:02.899Z,11.99
2022-09-20T05:22:02.224Z,12.01
2022-09-20T05:23:01.872Z,12.02
2022-09-20T05:24:02.525Z,12.04
2022-09-20T05:25:02.175Z,12.04
2022-09-20T05:26:02.117Z,12.02
2022-09-20T05:27:02.743Z,12.05
2022-09-20T05:28:02.507Z,12.05
2022-09-20T05:29:03.025Z,12.06
2022-09-20T05:30:05.095Z,12.06
2022-09-20T05:31:02.798Z,12.06
2022-09-20T05:32:02.721Z,12.09
2022-09-20T05:33:02.185Z,12.09
2022-09-20T05:34:02.093Z,12.08
2022-09-20T05:35:02.690Z,12.08
2022-09-20T05:36:02.349Z,12.11
2022-09-20T05:37:02.938Z,12.12
2022-09-20T05:38:02.846Z,12.15
2022-09-20T05:39:03.634Z,12.12
2022-09-20T05:40:02.575Z,12.13
2022-09-20T05:41:02.631Z,12.16
2022-09-20T05:42:02.464Z,12.19
2022-09-20T05:43:02.527Z,12.23
2022-09-20T05:44:02.097Z,12.23
2022-09-20T05:45:01.948Z,12.26
2022-09-20T05:46:01.963Z,12.26
2022-09-20T05:47:02.664Z,12.30
2022-09-20T05:48:02.262Z,12.31
2022-09-20T05:49:02.204Z,12.34
2022-09-20T05:50:02.807Z,12.37
2022-09-20T05:51:03.674Z,12.39
2022-09-20T05:52:03.176Z,12.42
2022-09-20T05:53:03.337Z,12.42
2022-09-20T05:54:02.960Z,12.45
2022-09-20T05:55:02.870Z,12.46
2022-09-20T05:56:03.168Z,12.48
2022-09-20T05:57:02.867Z,12.46
2022-09-20T05:58:02.450Z,12.49
2022-09-20T05:59:02.815Z,12.56
2022-09-20T06:00:02.894Z,12.59
2022-09-20T06:01:03.058Z,12.60
2022-09-20T06:02:02.593Z,12.62
2022-09-20T06:03:02.313Z,12.63
2022-09-20T06:04:02.410Z,12.67
2022-09-20T06:05:02.417Z,12.69
2022-09-20T06:06:02.369Z,12.69
2022-09-20T06:07:02.793Z,12.70
2022-09-20T06:08:02.785Z,12.70
2022-09-20T06:09:02.992Z,12.74
2022-09-20T06:10:02.944Z,12.75
2022-09-20T06:11:02.996Z,12.77
2022-09-20T06:12:02.723Z,12.79
2022-09-20T06:13:02.651Z,12.81
2022-09-20T06:14:02.122Z,12.84
2022-09-20T06:15:02.196Z,12.87
2022-09-20T06:16:02.152Z,12.88
2022-09-20T06:17:03.053Z,12.92
2022-09-20T06:18:02.877Z,12.92
2022-09-20T06:19:02.824Z,12.97
2022-09-20T06:20:02.769Z,12.99
2022-09-20T06:21:02.714Z,13.00
2022-09-20T06:22:03.703Z,13.02
2022-09-20T06:23:02.053Z,13.06
2022-09-20T06:24:02.264Z,13.09
2022-09-20T06:25:02.238Z,13.11
2022-09-20T06:26:02.186Z,13.15
2022-09-20T06:27:01.803Z,13.18
2022-09-20T06:28:01.983Z,13.21
2022-09-20T06:29:01.878Z,13.24
2022-09-20T06:30:02.071Z,13.25
2022-09-20T06:31:02.079Z,13.32
2022-09-20T06:32:02.434Z,13.32
2022-09-20T06:33:02.664Z,13.33
2022-09-20T06:34:02.401Z,13.36
2022-09-20T06:35:02.404Z,13.38
2022-09-20T06:36:02.416Z,13.40
2022-09-20T06:37:02.458Z,13.44
2022-09-20T06:38:02.484Z,13.46
2022-09-20T06:39:02.822Z,13.49
2022-09-20T06:40:02.914Z,13.52
2022-09-20T06:41:02.596Z,13.54
2022-09-20T06:42:02.718Z,13.55
2022-09-20T06:43:02.827Z,13.56
2022-09-20T06:44:02.798Z,13.61
2022-09-20T06:45:02.756Z,13.63
2022-09-20T06:46:02.772Z,13.65
2022-09-20T06:47:02.107Z,13.70
2022-09-20T06:48:02.240Z,13.74
2022-09-20T06:49:02.234Z,13.76
2022-09-20T06:50:02.192Z,13.79
2022-09-20T06:51:02.159Z,13.80
2022-09-20T06:52:02.115Z,13.81
2022-09-20T06:53:02.248Z,13.84
2022-09-20T06:54:02.221Z,13.88
2022-09-20T06:55:02.145Z,13.92
2022-09-20T06:56:02.200Z,13.95
2022-09-20T06:57:02.149Z,13.98
2022-09-20T06:58:02.656Z,14.01
2022-09-20T06:59:02.090Z,14.02
2022-09-20T07:00:02.193Z,14.04
2022-09-20T07:01:02.715Z,14.09
2022-09-20T07:02:02.605Z,14.12
2022-09-20T07:03:02.716Z,14.16
2022-09-20T07:04:02.908Z,14.13
2022-09-20T07:05:02.982Z,14.17
2022-09-20T07:06:02.659Z,14.16
2022-09-20T07:07:06.132Z,14.17
2022-09-20T07:08:02.652Z,14.19
2022-09-20T07:09:02.681Z,14.21
2022-09-20T07:10:02.687Z,14.25
2022-09-20T07:11:02.790Z,14.29
2022-09-20T07:12:02.098Z,14.29
2022-09-20T07:13:02.377Z,14.31
2022-09-20T07:14:02.024Z,14.31
2022-09-20T07:15:02.459Z,14.29
2022-09-20T07:16:02.557Z,14.31
2022-09-20T07:17:02.543Z,14.34
2022-09-20T07:18:03.059Z,14.35
2022-09-20T07:19:02.436Z,14.37
2022-09-20T07:20:02.821Z,14.37
2022-09-20T07:21:02.903Z,14.38
2022-09-20T07:22:02.255Z,14.38
2022-09-20T07:23:02.707Z,14.39
2022-09-20T07:24:02.349Z,14.42
2022-09-20T07:25:02.459Z,14.42
2022-09-20T07:26:02.439Z,14.43
2022-09-20T07:27:02.659Z,14.47
2022-09-20T07:28:02.485Z,14.49
2022-09-20T07:29:02.936Z,14.50
2022-09-20T07:30:02.554Z,14.50
2022-09-20T07:31:02.935Z,14.52
2022-09-20T07:32:02.998Z,14.56
2022-09-20T07:33:03.211Z,14.57
2022-09-20T07:34:03.202Z,14.61
2022-09-20T07:35:03.055Z,14.61
2022-09-20T07:36:03.296Z,14.61
2022-09-20T07:37:02.402Z,14.62
2022-09-20T07:38:02.804Z,14.61
2022-09-20T07:39:02.408Z,14.64
2022-09-20T07:40:02.617Z,14.65
2022-09-20T07:41:02.515Z,14.67
2022-09-20T07:42:03.043Z,14.69
2022-09-20T07:43:02.376Z,14.74
2022-09-20T07:44:02.569Z,14.81
2022-09-20T07:45:02.824Z,14.84
2022-09-20T07:46:02.791Z,14.88
2022-09-20T07:47:02.643Z,14.88
2022-09-20T07:48:02.124Z,14.91
2022-09-20T07:49:02.219Z,14.94
2022-09-20T07:50:02.415Z,14.98
2022-09-20T07:51:06.742Z,15.03
2022-09-20T07:52:02.853Z,15.08
2022-09-20T07:53:02.506Z,15.15
2022-09-20T07:54:02.498Z,15.20
2022-09-20T07:55:03.040Z,15.24
2022-09-20T07:56:02.641Z,15.31
2022-09-20T07:57:03.012Z,15.39
2022-09-20T07:58:03.090Z,15.45
2022-09-20T07:59:03.203Z,15.51
2022-09-20T08:00:02.859Z,15.52
2022-09-20T08:01:03.247Z,15.52
2022-09-20T08:02:02.377Z,15.52
2022-09-20T08:03:02.433Z,15.59
2022-09-20T08:04:02.720Z,15.66
2022-09-20T08:05:02.472Z,15.72
2022-09-20T08:06:02.503Z,15.76
2022-09-20T08:07:02.157Z,15.79
2022-09-20T08:08:01.894Z,15.79
2022-09-20T08:09:01.942Z,15.85
2022-09-20T08:10:02.040Z,15.88
2022-09-20T08:11:02.110Z,15.94
2022-09-20T08:14:06.552Z,15.99
2022-09-20T08:15:02.474Z,15.99
2022-09-20T08:16:02.125Z,16.01
2022-09-20T08:17:02.086Z,16.01
2022-09-20T08:18:01.986Z,16.01
2022-09-20T08:19:02.111Z,16.03
2022-09-20T08:20:02.192Z,16.07
2022-09-20T08:21:02.022Z,16.11
2022-09-20T08:22:02.375Z,16.15
2022-09-20T08:23:22.559Z,16.16
2022-09-20T08:24:02.685Z,16.15
2022-09-20T08:25:02.775Z,16.18
2022-09-20T08:26:02.892Z,16.23
2022-09-20T08:27:02.230Z,16.26
2022-09-20T08:28:02.498Z,16.34
2022-09-20T08:29:02.593Z,16.37
2022-09-20T08:30:02.546Z,16.41
2022-09-20T08:31:02.336Z,16.48
2022-09-20T08:32:02.676Z,16.50
2022-09-20T08:33:02.880Z,16.52
2022-09-20T08:34:02.756Z,16.50
2022-09-20T08:35:02.327Z,16.53
2022-09-20T08:36:02.973Z,16.56
2022-09-20T08:37:02.172Z,16.59
2022-09-20T08:40:02.189Z,16.73
2022-09-20T08:41:01.915Z,16.80
2022-09-20T08:42:02.380Z,16.77
2022-09-20T08:43:05.555Z,16.77
2022-09-20T08:44:02.073Z,16.74
2022-09-20T08:45:02.217Z,16.74
2022-09-20T08:46:05.549Z,16.71
2022-09-20T08:47:02.676Z,16.67
2022-09-20T08:48:02.388Z,16.63
2022-09-20T08:49:02.475Z,16.63
2022-09-20T08:50:09.268Z,16.67
2022-09-20T08:51:05.600Z,16.68
2022-09-20T08:52:02.367Z,16.67
2022-09-20T08:53:02.028Z,16.70
2022-09-20T08:54:01.831Z,16.65
2022-09-20T08:55:07.732Z,16.70
2022-09-20T08:56:02.003Z,16.71
2022-09-20T08:57:02.682Z,16.71
2022-09-20T08:58:07.526Z,16.71
2022-09-20T08:59:02.382Z,16.74
2022-09-20T09:00:02.216Z,16.75
2022-09-20T09:01:02.389Z,16.77
2022-09-20T09:02:02.944Z,16.78
2022-09-20T09:03:03.339Z,16.86
2022-09-20T09:04:03.175Z,16.88
2022-09-20T09:05:02.753Z,16.88
2022-09-20T09:06:06.480Z,16.80
2022-09-20T09:07:02.710Z,16.77
2022-09-20T09:08:04.677Z,16.77
2022-09-20T09:09:02.570Z,16.70
2022-09-20T09:10:02.688Z,16.67
2022-09-20T09:11:02.988Z,16.65
2022-09-20T09:12:01.937Z,16.55
2022-09-20T09:13:02.281Z,16.52
2022-09-20T09:14:02.437Z,16.48
2022-09-20T09:15:02.218Z,16.48
2022-09-20T09:16:01.850Z,16.52
2022-09-20T09:17:02.405Z,16.62
2022-09-20T09:18:02.981Z,16.65
2022-09-20T09:19:02.620Z,16.71
2022-09-20T09:20:02.901Z,16.74
2022-09-20T09:21:02.980Z,16.80
2022-09-20T09:22:02.676Z,16.86
2022-09-20T09:23:03.228Z,16.90
2022-09-20T09:24:02.717Z,16.99
2022-09-20T09:25:03.306Z,17.08
2022-09-20T09:26:02.755Z,17.15
2022-09-20T09:27:01.936Z,17.22
2022-09-20T09:28:02.350Z,17.29
2022-09-20T09:29:02.341Z,17.36
2022-09-20T09:30:02.279Z,17.44
2022-09-20T09:31:02.397Z,17.53
2022-09-20T09:32:02.104Z,17.55
2022-09-20T09:33:02.125Z,17.62
2022-09-20T09:34:02.106Z,17.64
2022-09-20T09:35:02.099Z,17.64
2022-09-20T09:36:02.049Z,17.59
2022-09-20T09:37:02.435Z,17.64
2022-09-20T09:38:02.903Z,17.70
2022-09-20T09:39:02.382Z,17.70
2022-09-20T09:40:02.777Z,17.59
2022-09-20T09:41:02.672Z,17.57
2022-09-20T09:42:02.433Z,17.62
2022-09-20T09:43:02.477Z,17.54
2022-09-20T09:44:02.561Z,17.54
2022-09-20T09:45:02.473Z,17.54
2022-09-20T09:46:02.568Z,17.51
2022-09-20T09:47:02.884Z,17.46
2022-09-20T09:48:03.305Z,17.44
2022-09-20T09:49:03.341Z,17.44
2022-09-20T09:50:08.884Z,17.44
2022-09-20T09:51:03.107Z,17.41
2022-09-20T09:52:02.488Z,17.38
2022-09-20T09:53:02.489Z,17.38
2022-09-20T09:54:02.458Z,17.43
2022-09-20T09:55:05.472Z,17.46
2022-09-20T09:56:02.644Z,17.41
2022-09-20T09:57:02.572Z,17.43
2022-09-20T09:58:02.733Z,17.48
2022-09-20T09:59:02.669Z,17.57
2022-09-20T10:00:05.487Z,17.66
2022-09-20T10:01:02.989Z,17.76
2022-09-20T10:02:03.318Z,17.84
2022-09-20T10:03:03.496Z,17.91
2022-09-20T10:04:03.305Z,17.94
2022-09-20T10:05:03.173Z,18.02
2022-09-20T10:06:03.304Z,18.07
2022-09-20T10:07:02.830Z,18.17
2022-09-20T10:08:02.669Z,18.22
2022-09-20T10:09:02.776Z,18.27
2022-09-20T10:10:02.867Z,18.31
2022-09-20T10:11:02.962Z,18.40
2022-09-20T10:12:02.884Z,18.47
2022-09-20T10:13:02.826Z,18.47
2022-09-20T10:14:02.911Z,18.50
2022-09-20T10:15:03.292Z,18.55
2022-09-20T10:16:03.042Z,18.62
2022-09-20T10:17:03.406Z,18.72
2022-09-20T10:18:03.299Z,18.70
2022-09-20T10:19:03.094Z,18.65
2022-09-20T10:20:03.466Z,18.64
2022-09-20T10:21:03.634Z,18.70
2022-09-20T10:22:02.673Z,18.73
2022-09-20T10:23:30.461Z,18.70
2022-09-20T10:24:04.217Z,18.70
2022-09-20T10:25:02.621Z,18.70
2022-09-20T10:26:02.555Z,18.67
2022-09-20T10:27:03.187Z,18.65
2022-09-20T10:28:03.392Z,18.58
2022-09-20T10:29:03.275Z,18.52
2022-09-20T10:30:03.044Z,18.46
2022-09-20T10:31:03.039Z,18.44
2022-09-20T10:32:03.305Z,18.36
2022-09-20T10:33:03.285Z,18.29
2022-09-20T10:34:03.643Z,18.18
2022-09-20T10:35:03.543Z,18.09
2022-09-20T10:36:03.075Z,18.03
2022-09-20T10:37:03.479Z,17.95
2022-09-20T10:38:03.329Z,17.91
2022-09-20T10:39:03.502Z,17.87
2022-09-20T10:40:03.629Z,17.74
2022-09-20T10:41:03.489Z,17.66
2022-09-20T10:42:03.173Z,17.54
2022-09-20T10:43:03.377Z,17.47
2022-09-20T10:44:05.651Z,17.44
2022-09-20T10:45:03.316Z,17.36
2022-09-20T10:46:28.049Z,17.22
2022-09-20T10:47:02.642Z,17.15
2022-09-20T10:48:02.645Z,17.14
2022-09-20T10:49:02.895Z,17.14
2022-09-20T10:50:02.480Z,17.06
2022-09-20T10:51:02.633Z,16.98
2022-09-20T10:52:03.178Z,16.89
2022-09-20T10:53:03.021Z,16.92
2022-09-20T10:54:03.027Z,16.88
2022-09-20T10:55:03.398Z,16.86
2022-09-20T10:56:03.201Z,16.83
2022-09-20T10:57:02.794Z,16.88
2022-09-20T10:58:02.910Z,16.83
2022-09-20T10:59:02.779Z,16.83
2022-09-20T11:00:02.785Z,16.85
2022-09-20T11:01:02.483Z,16.88
2022-09-20T11:02:02.579Z,16.86
2022-09-20T11:03:02.563Z,16.75
2022-09-20T11:04:02.118Z,16.73
2022-09-20T11:05:02.122Z,16.71
2022-09-20T11:06:02.104Z,16.71
2022-09-20T11:07:02.197Z,16.73
2022-09-20T11:08:01.744Z,16.74
2022-09-20T11:09:01.750Z,16.73
2022-09-20T11:10:02.303Z,16.74
2022-09-20T11:11:02.032Z,16.70
2022-09-20T11:12:02.262Z,16.70
2022-09-20T11:13:02.294Z,16.73
2022-09-20T11:14:02.290Z,16.70
2022-09-20T11:15:02.408Z,16.71
2022-09-20T11:16:02.131Z,16.70
2022-09-20T11:17:03.043Z,16.70
2022-09-20T11:18:02.654Z,16.71
2022-09-20T11:19:03.083Z,16.75
2022-09-20T11:20:07.240Z,16.81
2022-09-20T11:21:02.811Z,16.89
2022-09-20T11:22:02.526Z,16.93
2022-09-20T11:23:02.206Z,16.95
2022-09-20T11:24:02.289Z,16.99
2022-09-20T11:25:02.450Z,16.99
2022-09-20T11:26:02.469Z,17.03
2022-09-20T11:27:03.116Z,17.04
2022-09-20T11:28:02.975Z,17.00
2022-09-20T11:29:02.907Z,17.06
2022-09-20T11:30:02.825Z,17.10
2022-09-20T11:31:02.768Z,17.17
2022-09-20T11:32:02.454Z,17.18
2022-09-20T11:33:02.488Z,17.23
2022-09-20T11:34:02.465Z,17.25
2022-09-20T11:35:02.447Z,17.26
2022-09-20T11:36:02.185Z,17.30
2022-09-20T11:37:02.927Z,17.32
2022-09-20T11:38:02.824Z,17.35
2022-09-20T11:39:02.867Z,17.41
2022-09-20T11:40:02.684Z,17.46
2022-09-20T11:41:02.766Z,17.53
2022-09-20T11:42:03.015Z,17.59
2022-09-20T11:43:02.413Z,17.63
2022-09-20T11:44:02.405Z,17.67
2022-09-20T11:45:02.400Z,17.76
2022-09-20T11:46:02.451Z,17.74
2022-09-20T11:47:03.106Z,17.76
2022-09-20T11:48:02.795Z,17.76
2022-09-20T11:49:02.743Z,17.82
2022-09-20T11:50:03.089Z,17.87
2022-09-20T11:51:03.120Z,17.88
2022-09-20T11:52:02.049Z,17.94
2022-09-20T11:53:02.199Z,18.00
2022-09-20T11:54:02.516Z,18.06
2022-09-20T11:55:02.556Z,18.12
2022-09-20T11:56:02.660Z,18.15
2022-09-20T11:57:02.203Z,18.19
2022-09-20T11:58:02.687Z,18.21
2022-09-20T11:59:02.204Z,18.28
2022-09-20T12:00:02.652Z,18.31
2022-09-20T12:01:02.372Z,18.31
2022-09-20T12:02:02.651Z,18.34
2022-09-20T12:03:03.029Z,18.40
2022-09-20T12:04:30.741Z,18.43
2022-09-20T12:05:02.944Z,18.43
2022-09-20T12:06:02.961Z,18.40
2022-09-20T12:07:08.378Z,18.37
2022-09-20T12:08:03.006Z,18.39
2022-09-20T12:09:03.037Z,18.37
2022-09-20T12:10:02.827Z,18.39
2022-09-20T12:11:02.732Z,18.43
2022-09-20T12:12:03.178Z,18.37
2022-09-20T12:13:03.317Z,18.34
2022-09-20T12:14:03.318Z,18.28
2022-09-20T12:15:03.276Z,18.29
2022-09-20T12:16:03.540Z,18.24
2022-09-20T12:17:03.421Z,18.28
2022-09-20T12:18:06.744Z,18.24
2022-09-20T12:19:02.499Z,18.18
2022-09-20T12:20:03.036Z,18.12
2022-09-20T12:21:02.943Z,18.10
2022-09-20T12:22:02.916Z,18.04
2022-09-20T12:23:03.421Z,18.02
2022-09-20T12:24:03.372Z,18.02
2022-09-20T12:25:03.560Z,18.03
2022-09-20T12:26:03.588Z,18.00
2022-09-20T12:27:03.615Z,18.03
2022-09-20T12:28:03.043Z,18.03
2022-09-20T12:29:03.046Z,18.06
2022-09-20T12:30:02.811Z,18.06
2022-09-20T12:31:03.224Z,18.04
2022-09-20T12:32:03.335Z,18.00
2022-09-20T12:33:02.969Z,17.99
2022-09-20T12:34:02.991Z,17.95
2022-09-20T12:35:02.934Z,17.95
2022-09-20T12:36:02.964Z,17.95
2022-09-20T12:37:03.005Z,17.99
2022-09-20T12:38:03.973Z,17.94
2022-09-20T12:39:03.446Z,17.92
2022-09-20T12:40:03.493Z,17.95
2022-09-20T12:41:03.824Z,17.99
2022-09-20T12:42:03.925Z,17.91
2022-09-20T12:43:03.033Z,17.92
2022-09-20T12:44:02.832Z,17.91
2022-09-20T12:45:02.810Z,17.91
2022-09-20T12:46:07.518Z,17.95
2022-09-20T12:47:03.229Z,18.02
2022-09-20T12:48:03.999Z,18.03
2022-09-20T12:49:03.871Z,18.12
2022-09-20T12:50:03.488Z,18.17
2022-09-20T12:51:03.382Z,18.24
2022-09-20T12:52:03.347Z,18.29
2022-09-20T12:53:03.265Z,18.33
2022-09-20T12:54:03.166Z,18.43
2022-09-20T12:55:06.537Z,18.50
2022-09-20T12:56:03.216Z,18.59